首页
METAR-TAF:

METAR-TAF

机场 :

通孔廷国际机场

德古斯加巴, 洪都拉斯

纬度: 14-03N, 经度: 087-13W, 海拔: 994米

当前天气观测

该预报发布于53分钟前的18:07 UTC
风速6节,风向
温度 30°C
湿度 35%
气压 1021 hPa
能见度10公里或以上
少量云层高于3200英尺
多云层高于20000英尺

METAR: MHTG 071807Z COR 09006KT 9999 FEW032 BKN200 30/13 Q1021 A3015

时间: 13:00 (19:00 UTC)

预报

该预报发布于2小时和30分钟前的16:30 UTC
预报有效从07日的 18点(UTC)到 08日的 18点(UTC)
风速12节,风向东转东北
能見度: 8000
少量云层高于3400英尺
成为
从 08日的 10点(UTC)到 08日的 12点(UTC)
能見度: 5000
成为
从 08日的 15点(UTC)到 08日的 17点(UTC)
能見度: 8000

TAF: MHTG 071630Z 0718/0818 07012KT 8000 FEW034 TX32/0721Z TN15/0812Z BECMG 0810/0812 5000 FU BECMG 0815/0817 8000

超过4000个机场的气象观测和天气预报(METAR&TAF报告)。

可查询的气象台以黄色和红色小点在地图上表示。

将鼠标移到小点上方,可查看气象台名称。

然后点击查看天气观测和预报。

如需切换地图:点击带黑十字的绿色按钮放大地图;点击带横线的绿色按钮缩小地图;或者点击绿色箭头查看邻近地区的地图。


METAR-TAF: